Kecel, Hungary
Current Conditions -  °F | °C
As of 8:15 PM on Tuesday 21 Oct 2014 (Local Time) from LHKE Reporting Station
Clear Clear  
Wind Chill: 57°   Ceiling: Unl
Heat Index: 57°   Visibility: 5mi
Dew Point: 55°   Wind: 5mph
Humidity: 94%   Direction: 240°WSW
Pressure: 29.8"   Gusts: NA
Location:  46.53°N, 19.24°E
Report Text: LHKE 211815Z 24004KT 8000 NSC 14/13 Q1009 NOSIG RMK BLU
Loading
Personal Weather Stations






























Interactive Weather Map
Tropical Storm Tracking
New forecast layout! Learn more

10-Day Weather Forecast

Advertisements
Track Severe Weather on mobile